createdAt,value
2022-12-22T00:00:13.736Z,7.10
2022-12-22T00:01:13.741Z,6.00
2022-12-22T00:02:13.887Z,6.20
2022-12-22T00:03:13.831Z,6.90
2022-12-22T00:04:13.776Z,5.50
2022-12-22T00:05:13.678Z,8.10
2022-12-22T00:06:13.671Z,6.00
2022-12-22T00:07:13.632Z,9.50
2022-12-22T00:08:13.650Z,6.60
2022-12-22T00:09:13.614Z,6.70
2022-12-22T00:10:13.621Z,6.20
2022-12-22T00:11:13.590Z,4.70
2022-12-22T00:12:13.602Z,4.80
2022-12-22T00:13:13.566Z,5.80
2022-12-22T00:14:13.555Z,4.60
2022-12-22T00:15:13.537Z,4.30
2022-12-22T00:16:13.574Z,4.80
2022-12-22T00:17:13.549Z,6.20
2022-12-22T00:18:13.500Z,7.20
2022-12-22T00:19:13.488Z,5.60
2022-12-22T00:20:18.351Z,5.10
2022-12-22T00:21:13.464Z,4.80
2022-12-22T00:22:13.468Z,7.50
2022-12-22T00:23:13.437Z,4.80
2022-12-22T00:24:13.421Z,6.50
2022-12-22T00:25:13.414Z,5.90
2022-12-22T00:26:13.420Z,6.10
2022-12-22T00:27:13.426Z,6.20
2022-12-22T00:28:13.367Z,8.00
2022-12-22T00:29:13.352Z,5.70
2022-12-22T00:30:13.348Z,5.80
2022-12-22T00:31:13.387Z,6.20
2022-12-22T00:32:13.356Z,5.60
2022-12-22T00:33:13.323Z,6.70
2022-12-22T00:34:13.296Z,5.30
2022-12-22T00:35:13.291Z,6.70
2022-12-22T00:36:13.264Z,7.10
2022-12-22T00:37:13.279Z,6.10
2022-12-22T00:38:13.282Z,5.40
2022-12-22T00:39:13.242Z,6.00
2022-12-22T00:40:13.218Z,6.80
2022-12-22T00:41:13.213Z,5.50
2022-12-22T00:42:13.184Z,5.40
2022-12-22T00:43:13.200Z,6.50
2022-12-22T00:44:13.183Z,5.30
2022-12-22T00:45:13.143Z,6.60
2022-12-22T00:46:13.208Z,5.30
2022-12-22T00:47:13.190Z,6.50
2022-12-22T00:48:13.157Z,5.70
2022-12-22T00:49:13.131Z,7.00
2022-12-22T00:50:13.106Z,5.80
2022-12-22T00:51:13.065Z,6.80
2022-12-22T00:52:13.076Z,6.20
2022-12-22T00:53:13.094Z,5.00
2022-12-22T00:54:13.083Z,5.00
2022-12-22T00:55:13.006Z,4.10
2022-12-22T00:56:13.010Z,4.90
2022-12-22T00:57:12.998Z,4.90
2022-12-22T00:58:12.999Z,4.90
2022-12-22T00:59:12.983Z,5.60
2022-12-22T01:00:12.959Z,4.60
2022-12-22T01:01:13.004Z,5.60
2022-12-22T01:02:13.193Z,4.30
2022-12-22T01:03:13.133Z,5.90
2022-12-22T01:04:12.916Z,5.50
2022-12-22T01:05:12.882Z,4.50
2022-12-22T01:06:12.873Z,5.40
2022-12-22T01:07:12.852Z,4.50
2022-12-22T01:08:12.859Z,4.50
2022-12-22T01:09:12.867Z,4.90
2022-12-22T01:10:12.822Z,4.40
2022-12-22T01:11:12.813Z,6.50
2022-12-22T01:12:12.800Z,4.70
2022-12-22T01:13:12.798Z,4.20
2022-12-22T01:14:12.814Z,5.00
2022-12-22T01:15:12.754Z,4.80
2022-12-22T01:16:12.817Z,4.90
2022-12-22T01:17:12.723Z,4.60
2022-12-22T01:18:12.714Z,5.00
2022-12-22T01:19:12.723Z,5.20
2022-12-22T01:20:12.689Z,6.10
2022-12-22T01:21:12.675Z,5.30
2022-12-22T01:22:12.669Z,3.40
2022-12-22T01:23:12.647Z,4.10
2022-12-22T01:24:12.671Z,4.60
2022-12-22T01:25:12.660Z,4.30
2022-12-22T01:26:12.611Z,4.80
2022-12-22T01:27:12.593Z,5.30
2022-12-22T01:28:12.602Z,5.60
2022-12-22T01:29:12.595Z,4.20
2022-12-22T01:30:12.579Z,7.20
2022-12-22T01:31:12.616Z,4.60
2022-12-22T01:32:12.535Z,5.60
2022-12-22T01:33:12.513Z,4.50
2022-12-22T01:34:12.716Z,5.10
2022-12-22T01:35:12.497Z,4.60
2022-12-22T01:36:12.480Z,4.60
2022-12-22T01:37:12.466Z,5.10
2022-12-22T01:38:12.496Z,4.80
2022-12-22T01:39:12.451Z,5.50
2022-12-22T01:40:12.460Z,5.30
2022-12-22T01:41:12.462Z,6.30
2022-12-22T01:42:12.429Z,6.30
2022-12-22T01:43:12.384Z,7.20
2022-12-22T01:44:12.376Z,5.20
2022-12-22T01:45:12.400Z,5.70
2022-12-22T01:46:12.378Z,5.20
2022-12-22T01:47:12.363Z,4.10
2022-12-22T01:48:12.337Z,4.80
2022-12-22T01:49:12.303Z,4.50
2022-12-22T01:50:12.340Z,4.60
2022-12-22T01:51:12.285Z,6.20
2022-12-22T01:52:12.285Z,4.70
2022-12-22T01:53:18.029Z,5.20
2022-12-22T01:54:12.260Z,5.90
2022-12-22T01:55:12.256Z,4.90
2022-12-22T01:56:12.232Z,4.20
2022-12-22T01:57:12.247Z,4.90
2022-12-22T01:58:12.204Z,5.00
2022-12-22T01:59:12.227Z,8.30
2022-12-22T02:00:12.185Z,4.20
2022-12-22T02:01:12.192Z,6.50
2022-12-22T02:02:12.242Z,4.10
2022-12-22T02:03:12.202Z,5.50
2022-12-22T02:04:12.117Z,6.00
2022-12-22T02:05:12.109Z,5.30
2022-12-22T02:06:12.131Z,5.50
2022-12-22T02:07:12.085Z,4.60
2022-12-22T02:08:12.071Z,6.50
2022-12-22T02:09:12.068Z,6.10
2022-12-22T02:10:12.040Z,5.10
2022-12-22T02:11:12.044Z,7.20
2022-12-22T02:12:12.015Z,7.00
2022-12-22T02:13:12.002Z,7.50
2022-12-22T02:14:11.995Z,6.50
2022-12-22T02:15:11.977Z,6.00
2022-12-22T02:16:12.094Z,6.40
2022-12-22T02:17:11.939Z,6.50
2022-12-22T02:18:11.936Z,5.80
2022-12-22T02:19:11.950Z,5.00
2022-12-22T02:20:11.911Z,4.70
2022-12-22T02:21:11.885Z,6.40
2022-12-22T02:22:11.941Z,5.30
2022-12-22T02:23:11.868Z,4.40
2022-12-22T02:24:11.859Z,6.80
2022-12-22T02:25:11.890Z,4.60
2022-12-22T02:26:11.829Z,5.50
2022-12-22T02:27:11.846Z,4.90
2022-12-22T02:28:11.857Z,5.50
2022-12-22T02:29:11.797Z,4.10
2022-12-22T02:30:11.775Z,6.00
2022-12-22T02:31:11.895Z,5.30
2022-12-22T02:32:11.807Z,4.20
2022-12-22T02:33:11.739Z,5.60
2022-12-22T02:34:11.726Z,5.20
2022-12-22T02:35:11.712Z,5.50
2022-12-22T02:36:11.708Z,5.30
2022-12-22T02:37:11.702Z,6.30
2022-12-22T02:38:11.674Z,6.00
2022-12-22T02:39:11.659Z,7.50
2022-12-22T02:40:11.669Z,5.40
2022-12-22T02:41:11.658Z,6.20
2022-12-22T02:42:11.624Z,6.90
2022-12-22T02:43:11.632Z,5.50
2022-12-22T02:44:11.598Z,4.70
2022-12-22T02:45:11.584Z,7.30
2022-12-22T02:46:11.609Z,5.50
2022-12-22T02:47:11.559Z,6.20
2022-12-22T02:48:11.615Z,5.00
2022-12-22T02:49:11.555Z,7.60
2022-12-22T02:50:11.515Z,6.50
2022-12-22T02:51:11.498Z,5.60
2022-12-22T02:52:11.512Z,9.60
2022-12-22T02:53:11.509Z,7.70
2022-12-22T02:54:11.460Z,6.50
2022-12-22T02:55:11.448Z,6.50
2022-12-22T02:56:11.447Z,8.20
2022-12-22T02:57:11.426Z,7.60
2022-12-22T02:58:11.436Z,7.20
2022-12-22T02:59:11.412Z,7.60
2022-12-22T03:00:11.410Z,7.00
2022-12-22T03:01:11.404Z,7.50
2022-12-22T03:02:11.529Z,6.60
2022-12-22T03:03:11.665Z,6.70
2022-12-22T03:04:11.334Z,7.00
2022-12-22T03:05:11.324Z,9.20
2022-12-22T03:06:11.331Z,8.20
2022-12-22T03:07:11.309Z,7.40
2022-12-22T03:08:11.294Z,5.90
2022-12-22T03:09:11.268Z,7.80
2022-12-22T03:10:11.322Z,8.00
2022-12-22T03:11:11.249Z,6.50
2022-12-22T03:12:11.285Z,8.30
2022-12-22T03:13:11.251Z,8.60
2022-12-22T03:14:11.209Z,8.50
2022-12-22T03:15:11.208Z,8.10
2022-12-22T03:16:11.349Z,8.40
2022-12-22T03:17:11.185Z,8.00
2022-12-22T03:18:11.186Z,8.30
2022-12-22T03:19:11.151Z,7.40
2022-12-22T03:20:11.124Z,5.90
2022-12-22T03:21:11.139Z,6.40
2022-12-22T03:22:11.109Z,6.50
2022-12-22T03:23:11.114Z,6.20
2022-12-22T03:24:11.110Z,8.20
2022-12-22T03:25:11.062Z,5.90
2022-12-22T03:26:11.044Z,4.90
2022-12-22T03:27:11.043Z,5.00
2022-12-22T03:28:11.042Z,5.20
2022-12-22T03:29:11.103Z,5.60
2022-12-22T03:30:11.026Z,5.00
2022-12-22T03:31:11.019Z,4.20
2022-12-22T03:32:10.993Z,4.40
2022-12-22T03:33:10.987Z,5.20
2022-12-22T03:34:10.956Z,5.40
2022-12-22T03:35:10.932Z,2.90
2022-12-22T03:36:10.946Z,3.30
2022-12-22T03:37:10.911Z,3.70
2022-12-22T03:38:10.941Z,3.70
2022-12-22T03:39:10.920Z,2.80
2022-12-22T03:40:10.852Z,2.80
2022-12-22T03:41:10.856Z,4.70
2022-12-22T03:42:10.862Z,2.80
2022-12-22T03:43:10.856Z,4.00
2022-12-22T03:44:10.847Z,2.70
2022-12-22T03:45:10.816Z,3.60
2022-12-22T03:46:10.798Z,3.90
2022-12-22T03:47:10.847Z,3.80
2022-12-22T03:48:10.771Z,2.30
2022-12-22T03:49:10.841Z,3.10
2022-12-22T03:50:10.747Z,4.00
2022-12-22T03:51:10.726Z,4.20
2022-12-22T03:52:10.703Z,4.30
2022-12-22T03:53:10.689Z,3.30
2022-12-22T03:54:10.736Z,3.10
2022-12-22T03:55:10.670Z,3.40
2022-12-22T03:56:10.660Z,3.70
2022-12-22T03:57:10.643Z,3.10
2022-12-22T03:58:10.621Z,5.00
2022-12-22T03:59:10.633Z,3.10
2022-12-22T04:00:10.596Z,5.20
2022-12-22T04:01:10.633Z,4.50
2022-12-22T04:02:10.744Z,4.90
2022-12-22T04:03:10.705Z,4.00
2022-12-22T04:04:10.576Z,3.90
2022-12-22T04:05:10.562Z,5.80
2022-12-22T04:06:10.528Z,3.20
2022-12-22T04:07:10.529Z,5.70
2022-12-22T04:08:10.497Z,5.90
2022-12-22T04:09:10.587Z,4.60
2022-12-22T04:10:10.522Z,4.20
2022-12-22T04:11:10.465Z,5.60
2022-12-22T04:12:10.471Z,4.10
2022-12-22T04:13:10.456Z,5.50
2022-12-22T04:14:10.474Z,4.70
2022-12-22T04:15:10.456Z,4.10
2022-12-22T04:16:10.496Z,4.30
2022-12-22T04:17:10.411Z,5.40
2022-12-22T04:18:10.460Z,7.10
2022-12-22T04:19:10.432Z,6.10
2022-12-22T04:20:10.344Z,5.40
2022-12-22T04:21:10.333Z,5.00
2022-12-22T04:22:10.367Z,5.50
2022-12-22T04:23:10.325Z,4.70
2022-12-22T04:24:10.288Z,6.50
2022-12-22T04:25:10.318Z,6.10
2022-12-22T04:26:10.365Z,4.80
2022-12-22T04:27:10.329Z,5.70
2022-12-22T04:28:10.257Z,4.90
2022-12-22T04:29:10.311Z,5.30
2022-12-22T04:30:10.250Z,5.20
2022-12-22T04:31:10.197Z,4.50
2022-12-22T04:32:10.233Z,5.20
2022-12-22T04:33:10.203Z,7.90
2022-12-22T04:34:10.153Z,5.50
2022-12-22T04:35:10.248Z,4.70
2022-12-22T04:36:10.231Z,6.90
2022-12-22T04:37:17.020Z,6.20
2022-12-22T04:38:10.107Z,4.30
2022-12-22T04:39:10.132Z,6.50
2022-12-22T04:40:10.122Z,6.90
2022-12-22T04:41:10.079Z,5.10
2022-12-22T04:42:10.061Z,4.60
2022-12-22T04:43:10.057Z,5.60
2022-12-22T04:44:10.051Z,7.90
2022-12-22T04:45:10.052Z,4.70
2022-12-22T04:46:10.088Z,4.20
2022-12-22T04:47:10.044Z,4.90
2022-12-22T04:48:10.023Z,5.60
2022-12-22T04:49:09.973Z,3.20
2022-12-22T04:50:10.013Z,7.40
2022-12-22T04:51:09.948Z,3.40
2022-12-22T04:52:09.994Z,5.00
2022-12-22T04:53:09.914Z,3.60
2022-12-22T04:54:09.911Z,6.50
2022-12-22T04:55:09.914Z,3.80
2022-12-22T04:56:09.896Z,3.50
2022-12-22T04:57:09.881Z,6.60
2022-12-22T04:58:09.842Z,2.90
2022-12-22T04:59:09.838Z,4.10
2022-12-22T05:00:09.875Z,3.70
2022-12-22T05:01:09.894Z,5.30
2022-12-22T05:02:09.950Z,4.10
2022-12-22T05:03:09.839Z,5.10
2022-12-22T05:04:09.782Z,4.60
2022-12-22T05:05:09.780Z,4.90
2022-12-22T05:06:09.800Z,4.40
2022-12-22T05:07:09.734Z,5.70
2022-12-22T05:08:09.722Z,5.10
2022-12-22T05:09:09.751Z,6.10
2022-12-22T05:10:09.709Z,6.10
2022-12-22T05:11:09.689Z,3.30
2022-12-22T05:12:09.657Z,5.30
2022-12-22T05:13:09.660Z,5.30
2022-12-22T05:14:09.686Z,4.90
2022-12-22T05:15:09.659Z,4.30
2022-12-22T05:16:09.746Z,5.70
2022-12-22T05:17:09.686Z,4.50
2022-12-22T05:18:09.598Z,6.10
2022-12-22T05:19:09.609Z,4.50
2022-12-22T05:20:09.586Z,5.40
2022-12-22T05:21:09.548Z,5.80
2022-12-22T05:22:09.561Z,5.60
2022-12-22T05:23:09.550Z,6.50
2022-12-22T05:24:09.541Z,4.80
2022-12-22T05:25:09.498Z,4.20
2022-12-22T05:26:09.513Z,6.20
2022-12-22T05:27:09.478Z,7.80
2022-12-22T05:28:09.483Z,4.10
2022-12-22T05:29:09.463Z,5.10
2022-12-22T05:30:09.444Z,6.50
2022-12-22T05:31:09.577Z,3.60
2022-12-22T05:32:09.401Z,4.70
2022-12-22T05:33:09.413Z,7.20
2022-12-22T05:34:09.370Z,7.40
2022-12-22T05:35:09.390Z,4.70
2022-12-22T05:36:09.392Z,4.20
2022-12-22T05:37:09.353Z,3.20
2022-12-22T05:38:09.340Z,7.10
2022-12-22T05:39:09.345Z,4.00
2022-12-22T05:40:09.352Z,5.70
2022-12-22T05:41:09.301Z,5.40
2022-12-22T05:42:09.277Z,5.60
2022-12-22T05:43:09.290Z,4.00
2022-12-22T05:44:09.252Z,6.70
2022-12-22T05:45:09.288Z,6.00
2022-12-22T05:46:09.348Z,4.60
2022-12-22T05:47:09.262Z,5.20
2022-12-22T05:48:09.209Z,4.40
2022-12-22T05:49:09.272Z,5.80
2022-12-22T05:50:09.196Z,5.90
2022-12-22T05:51:09.211Z,5.70
2022-12-22T05:52:09.158Z,3.70
2022-12-22T05:53:09.228Z,4.40
2022-12-22T05:54:09.125Z,4.20
2022-12-22T05:55:09.142Z,2.70
2022-12-22T05:56:09.130Z,5.30
2022-12-22T05:57:09.090Z,3.10
2022-12-22T05:58:09.088Z,4.80
2022-12-22T05:59:09.056Z,3.80
2022-12-22T06:00:09.043Z,3.40
2022-12-22T06:01:09.058Z,3.60
2022-12-22T06:02:09.147Z,6.20
2022-12-22T06:03:09.105Z,2.60
2022-12-22T06:04:09.126Z,5.40
2022-12-22T06:05:08.989Z,2.30
2022-12-22T06:06:09.038Z,4.30
2022-12-22T06:07:08.959Z,3.50
2022-12-22T06:08:08.963Z,5.50
2022-12-22T06:09:08.946Z,2.60
2022-12-22T06:10:12.376Z,2.80
2022-12-22T06:11:08.916Z,2.00
2022-12-22T06:12:08.882Z,4.90
2022-12-22T06:13:08.894Z,4.10
2022-12-22T06:14:08.871Z,4.10
2022-12-22T06:15:08.863Z,4.40
2022-12-22T06:16:08.928Z,4.30
2022-12-22T06:17:08.836Z,3.20
2022-12-22T06:18:08.835Z,4.80
2022-12-22T06:19:08.811Z,4.10
2022-12-22T06:20:08.778Z,5.90
2022-12-22T06:21:08.766Z,4.00
2022-12-22T06:22:08.868Z,6.70
2022-12-22T06:23:08.808Z,7.80
2022-12-22T06:24:08.758Z,4.60
2022-12-22T06:25:12.203Z,6.60
2022-12-22T06:26:08.720Z,7.80
2022-12-22T06:27:08.700Z,9.50
2022-12-22T06:28:08.705Z,6.10
2022-12-22T06:29:08.657Z,8.10
2022-12-22T06:30:08.687Z,6.40
2022-12-22T06:31:08.700Z,7.40
2022-12-22T06:32:08.652Z,9.00
2022-12-22T06:33:08.611Z,9.80
2022-12-22T06:34:08.608Z,12.90
2022-12-22T06:35:08.591Z,7.80
2022-12-22T06:36:08.603Z,8.10
2022-12-22T06:37:08.573Z,7.90
2022-12-22T06:38:08.553Z,6.20
2022-12-22T06:39:08.556Z,7.60
2022-12-22T06:40:08.522Z,9.40
2022-12-22T06:41:08.531Z,7.30
2022-12-22T06:42:08.488Z,8.70
2022-12-22T06:43:09.632Z,8.60
2022-12-22T06:44:08.498Z,9.40
2022-12-22T06:45:08.573Z,9.30
2022-12-22T06:46:08.516Z,9.10
2022-12-22T06:47:08.424Z,9.60
2022-12-22T06:48:08.430Z,11.50
2022-12-22T06:49:08.496Z,12.40
2022-12-22T06:50:08.399Z,11.70
2022-12-22T06:51:08.408Z,7.10
2022-12-22T06:52:08.373Z,15.20
2022-12-22T06:53:08.349Z,9.60
2022-12-22T06:54:08.350Z,13.50
2022-12-22T06:55:08.362Z,9.70
2022-12-22T06:56:08.271Z,9.20
2022-12-22T06:57:08.251Z,12.10
2022-12-22T06:58:08.262Z,11.90
2022-12-22T06:59:08.236Z,9.80
2022-12-22T07:00:08.234Z,15.50
2022-12-22T07:01:08.199Z,9.40
2022-12-22T07:02:08.348Z,13.10
2022-12-22T07:03:08.484Z,9.90
2022-12-22T07:04:08.270Z,10.60
2022-12-22T07:05:08.167Z,10.00
2022-12-22T07:06:08.165Z,18.00
2022-12-22T07:07:08.114Z,10.50
2022-12-22T07:08:09.418Z,12.70
2022-12-22T07:09:08.159Z,11.40
2022-12-22T07:10:08.112Z,9.30
2022-12-22T07:11:08.093Z,11.90
2022-12-22T07:12:08.083Z,13.30
2022-12-22T07:13:08.045Z,12.90
2022-12-22T07:14:08.045Z,12.80
2022-12-22T07:15:08.044Z,6.40
2022-12-22T07:16:08.075Z,10.50
2022-12-22T07:17:07.994Z,10.90
2022-12-22T07:18:07.984Z,9.20
2022-12-22T07:19:07.956Z,11.70
2022-12-22T07:20:07.954Z,11.10
2022-12-22T07:21:07.954Z,12.20
2022-12-22T07:22:07.925Z,13.50
2022-12-22T07:23:07.899Z,12.50
2022-12-22T07:24:07.984Z,13.50
2022-12-22T07:25:07.881Z,12.00
2022-12-22T07:26:07.997Z,9.70
2022-12-22T07:27:07.889Z,9.70
2022-12-22T07:28:07.845Z,17.70
2022-12-22T07:29:07.860Z,10.50
2022-12-22T07:30:07.863Z,9.30
2022-12-22T07:31:07.889Z,9.60
2022-12-22T07:32:07.820Z,12.50
2022-12-22T07:33:07.786Z,11.40
2022-12-22T07:34:07.789Z,11.80
2022-12-22T07:35:07.774Z,12.70
2022-12-22T07:36:07.765Z,11.50
2022-12-22T07:37:07.728Z,13.10
2022-12-22T07:38:07.742Z,11.70
2022-12-22T07:39:07.747Z,14.60
2022-12-22T07:40:07.708Z,11.30
2022-12-22T07:41:07.756Z,11.50
2022-12-22T07:42:07.777Z,11.70
2022-12-22T07:43:07.648Z,11.70
2022-12-22T07:44:07.684Z,11.80
2022-12-22T07:45:07.622Z,12.60
2022-12-22T07:46:07.683Z,12.30
2022-12-22T07:47:07.645Z,15.60
2022-12-22T07:48:07.811Z,13.00
2022-12-22T07:49:07.595Z,14.70
2022-12-22T07:50:07.572Z,11.20
2022-12-22T07:51:07.552Z,19.30
2022-12-22T07:52:07.564Z,8.00
2022-12-22T07:53:07.530Z,15.00
2022-12-22T07:54:07.509Z,9.20
2022-12-22T07:55:07.515Z,10.50
2022-12-22T07:56:07.504Z,10.70
2022-12-22T07:57:07.489Z,11.50
2022-12-22T07:58:07.484Z,13.60
2022-12-22T07:59:07.503Z,10.40
2022-12-22T08:00:07.446Z,9.30
2022-12-22T08:01:07.427Z,11.20
2022-12-22T08:02:07.595Z,10.10
2022-12-22T08:03:07.528Z,10.30
2022-12-22T08:04:07.400Z,10.10
2022-12-22T08:05:07.556Z,11.20
2022-12-22T08:06:07.380Z,10.10
2022-12-22T08:07:07.399Z,12.50
2022-12-22T08:08:07.336Z,8.10
2022-12-22T08:09:07.344Z,12.10
2022-12-22T08:10:07.335Z,11.30
2022-12-22T08:11:07.280Z,11.10
2022-12-22T08:12:07.323Z,12.70
2022-12-22T08:13:07.333Z,11.40
2022-12-22T08:14:07.253Z,10.50
2022-12-22T08:15:07.305Z,11.10
2022-12-22T08:16:07.241Z,11.60
2022-12-22T08:17:07.243Z,10.10
2022-12-22T08:18:07.207Z,8.40
2022-12-22T08:19:07.188Z,9.80
2022-12-22T08:20:07.208Z,9.10
2022-12-22T08:21:07.161Z,8.50
2022-12-22T08:22:07.176Z,7.20
2022-12-22T08:23:07.135Z,9.70
2022-12-22T08:24:07.142Z,8.70
2022-12-22T08:25:07.128Z,11.20
2022-12-22T08:26:07.139Z,8.10
2022-12-22T08:27:07.091Z,7.50
2022-12-22T08:28:07.085Z,9.30
2022-12-22T08:29:07.076Z,8.50
2022-12-22T08:30:07.072Z,11.10
2022-12-22T08:31:07.065Z,7.00
2022-12-22T08:32:07.149Z,6.30
2022-12-22T08:33:07.007Z,11.20
2022-12-22T08:34:06.988Z,8.40
2022-12-22T08:35:06.986Z,11.40
2022-12-22T08:36:08.439Z,10.60
2022-12-22T08:37:06.979Z,7.50
2022-12-22T08:38:06.935Z,6.80
2022-12-22T08:39:06.939Z,6.90
2022-12-22T08:40:06.912Z,8.80
2022-12-22T08:41:06.934Z,8.60
2022-12-22T08:42:06.912Z,5.40
2022-12-22T08:43:06.874Z,9.60
2022-12-22T08:44:06.874Z,5.60
2022-12-22T08:45:06.841Z,10.40
2022-12-22T08:46:06.855Z,8.40
2022-12-22T08:47:10.180Z,7.80
2022-12-22T08:48:06.816Z,7.20
2022-12-22T08:49:06.802Z,4.70
2022-12-22T08:50:06.786Z,5.50
2022-12-22T08:51:06.770Z,4.60
2022-12-22T08:52:06.823Z,7.00
2022-12-22T08:53:06.746Z,4.50
2022-12-22T08:54:07.127Z,6.30
2022-12-22T08:55:06.736Z,3.40
2022-12-22T08:56:06.723Z,4.50
2022-12-22T08:57:06.709Z,3.60
2022-12-22T08:58:06.682Z,5.80
2022-12-22T08:59:06.663Z,2.50
2022-12-22T09:00:06.686Z,4.60
2022-12-22T09:01:06.740Z,3.40
2022-12-22T09:02:06.771Z,3.80
2022-12-22T09:03:06.792Z,1.90
2022-12-22T09:04:06.630Z,3.80
2022-12-22T09:05:06.599Z,3.40
2022-12-22T09:06:06.589Z,2.10
2022-12-22T09:07:06.588Z,3.30
2022-12-22T09:08:06.553Z,3.40
2022-12-22T09:09:06.540Z,3.10
2022-12-22T09:10:06.548Z,2.80
2022-12-22T09:11:06.523Z,2.50
2022-12-22T09:12:06.510Z,3.10
2022-12-22T09:13:06.519Z,2.20
2022-12-22T09:14:06.498Z,2.60
2022-12-22T09:15:06.482Z,2.80
2022-12-22T09:16:06.508Z,2.00
2022-12-22T09:17:06.545Z,2.40
2022-12-22T09:18:06.467Z,3.60
2022-12-22T09:19:06.423Z,3.90
2022-12-22T09:20:06.398Z,1.70
2022-12-22T09:21:06.411Z,5.60
2022-12-22T09:22:06.386Z,3.20
2022-12-22T09:23:06.372Z,2.70
2022-12-22T09:24:06.367Z,3.70
2022-12-22T09:25:06.323Z,3.20
2022-12-22T09:26:06.325Z,2.60
2022-12-22T09:27:06.306Z,1.70
2022-12-22T09:28:06.316Z,1.60
2022-12-22T09:29:06.286Z,3.90
2022-12-22T09:30:06.273Z,1.80
2022-12-22T09:31:06.250Z,3.80
2022-12-22T09:32:06.276Z,2.90
2022-12-22T09:33:06.283Z,2.90
2022-12-22T09:34:07.176Z,3.00
2022-12-22T09:35:06.199Z,3.30
2022-12-22T09:36:06.212Z,2.30
2022-12-22T09:37:06.181Z,1.70
2022-12-22T09:38:06.222Z,3.60
2022-12-22T09:39:06.152Z,2.20
2022-12-22T09:40:06.148Z,2.90
2022-12-22T09:41:06.150Z,4.60
2022-12-22T09:42:06.105Z,2.90
2022-12-22T09:43:06.115Z,2.60
2022-12-22T09:44:06.115Z,3.90
2022-12-22T09:45:06.074Z,4.40
2022-12-22T09:46:06.226Z,1.50
2022-12-22T09:47:06.038Z,2.60
2022-12-22T09:48:06.042Z,3.00
2022-12-22T09:49:06.023Z,2.30
2022-12-22T09:50:06.026Z,2.40
2022-12-22T09:51:06.043Z,5.30
2022-12-22T09:52:05.988Z,3.70
2022-12-22T09:53:06.016Z,2.70
2022-12-22T09:54:05.955Z,2.60
2022-12-22T09:55:05.968Z,4.40
2022-12-22T09:56:05.944Z,2.60
2022-12-22T09:57:05.931Z,2.20
2022-12-22T09:58:05.951Z,1.60
2022-12-22T09:59:05.897Z,1.80
2022-12-22T10:00:05.881Z,2.80
2022-12-22T10:01:05.978Z,2.80
2022-12-22T10:02:06.133Z,2.90
2022-12-22T10:03:05.969Z,1.80
2022-12-22T10:04:05.868Z,2.90
2022-12-22T10:05:05.827Z,2.90
2022-12-22T10:06:05.819Z,1.40
2022-12-22T10:07:05.795Z,2.90
2022-12-22T10:08:05.858Z,1.70
2022-12-22T10:09:14.777Z,1.10
2022-12-22T10:10:05.758Z,1.20
2022-12-22T10:11:05.739Z,2.20
2022-12-22T10:12:05.725Z,1.20
2022-12-22T10:13:05.707Z,1.60
2022-12-22T10:14:05.733Z,2.30
2022-12-22T10:15:05.685Z,1.50
2022-12-22T10:16:05.683Z,1.90
2022-12-22T10:17:05.740Z,4.00
2022-12-22T10:18:05.679Z,2.50
2022-12-22T10:19:05.624Z,2.10
2022-12-22T10:20:05.627Z,1.00
2022-12-22T10:21:05.637Z,1.20
2022-12-22T10:22:05.607Z,1.30
2022-12-22T10:23:05.570Z,1.50
2022-12-22T10:24:05.609Z,0.80
2022-12-22T10:25:05.567Z,1.80
2022-12-22T10:27:05.523Z,3.00
2022-12-22T10:28:05.575Z,0.80
2022-12-22T10:29:05.525Z,1.80
2022-12-22T10:30:05.500Z,2.10
2022-12-22T10:31:05.479Z,1.90
2022-12-22T10:32:05.593Z,1.30
2022-12-22T10:33:05.530Z,2.10
2022-12-22T10:34:05.484Z,1.30
2022-12-22T10:35:05.431Z,0.80
2022-12-22T10:36:05.418Z,1.20
2022-12-22T10:37:05.390Z,2.00
2022-12-22T10:38:05.400Z,2.40
2022-12-22T10:39:05.424Z,0.80
2022-12-22T10:40:05.360Z,2.70
2022-12-22T10:41:05.353Z,0.70
2022-12-22T10:42:05.339Z,1.10
2022-12-22T10:43:05.315Z,1.20
2022-12-22T10:44:05.340Z,1.00
2022-12-22T10:45:05.287Z,1.70
2022-12-22T10:46:12.195Z,2.00
2022-12-22T10:47:05.277Z,1.50
2022-12-22T10:48:05.289Z,1.50
2022-12-22T10:49:05.234Z,1.70
2022-12-22T10:50:05.229Z,1.60
2022-12-22T10:51:05.214Z,1.30
2022-12-22T10:52:05.221Z,4.00
2022-12-22T10:53:05.193Z,1.40
2022-12-22T10:54:05.210Z,0.70
2022-12-22T10:55:05.155Z,1.10
2022-12-22T10:56:05.148Z,1.10
2022-12-22T10:57:05.168Z,2.10
2022-12-22T10:58:05.712Z,2.20
2022-12-22T10:59:05.108Z,0.70
2022-12-22T11:00:05.177Z,1.50
2022-12-22T11:01:05.149Z,1.40
2022-12-22T11:02:05.319Z,1.20
2022-12-22T11:03:05.126Z,0.70
2022-12-22T11:04:05.090Z,0.80
2022-12-22T11:05:05.066Z,1.10
2022-12-22T11:06:05.019Z,1.20
2022-12-22T11:07:05.023Z,2.50
2022-12-22T11:08:05.022Z,1.30
2022-12-22T11:09:31.867Z,1.50
2022-12-22T11:10:04.980Z,0.80
2022-12-22T11:11:04.952Z,1.20
2022-12-22T11:12:04.951Z,2.00
2022-12-22T11:13:04.951Z,0.70
2022-12-22T11:14:04.917Z,0.90
2022-12-22T11:15:04.942Z,1.30
2022-12-22T11:16:04.877Z,1.10
2022-12-22T11:17:04.928Z,1.00
2022-12-22T11:18:04.905Z,1.80
2022-12-22T11:19:04.861Z,2.00
2022-12-22T11:20:04.944Z,0.70
2022-12-22T11:21:04.838Z,2.40
2022-12-22T11:22:04.825Z,1.40
2022-12-22T11:23:04.910Z,1.30
2022-12-22T11:24:04.782Z,1.10
2022-12-22T11:25:04.778Z,1.00
2022-12-22T11:26:04.768Z,2.10
2022-12-22T11:27:04.742Z,1.40
2022-12-22T11:28:04.774Z,1.20
2022-12-22T11:29:04.746Z,1.00
2022-12-22T11:30:04.756Z,1.00
2022-12-22T11:31:04.711Z,2.20
2022-12-22T11:32:04.709Z,2.20
2022-12-22T11:33:04.700Z,1.70
2022-12-22T11:34:04.659Z,1.40
2022-12-22T11:35:04.656Z,2.00
2022-12-22T11:36:04.646Z,1.90
2022-12-22T11:37:04.615Z,1.60
2022-12-22T11:38:04.630Z,2.00
2022-12-22T11:39:04.605Z,1.30
2022-12-22T11:40:04.593Z,1.00
2022-12-22T11:41:04.580Z,1.30
2022-12-22T11:42:04.596Z,1.50
2022-12-22T11:43:04.612Z,1.80
2022-12-22T11:44:04.517Z,1.10
2022-12-22T11:45:04.516Z,2.60
2022-12-22T11:46:04.628Z,1.70
2022-12-22T11:47:04.504Z,1.40
2022-12-22T11:48:04.477Z,1.70
2022-12-22T11:49:04.486Z,1.80
2022-12-22T11:51:00.152Z,1.10
2022-12-22T11:51:10.951Z,1.20
2022-12-22T11:52:04.449Z,1.70
2022-12-22T11:53:04.441Z,1.00
2022-12-22T11:54:10.663Z,1.80
2022-12-22T11:55:04.404Z,1.30
2022-12-22T11:56:04.395Z,1.50
2022-12-22T11:57:04.389Z,1.90
2022-12-22T11:58:04.387Z,2.40
2022-12-22T11:59:04.327Z,1.80
2022-12-22T12:00:04.319Z,2.10
2022-12-22T12:01:15.327Z,0.80
2022-12-22T12:02:04.362Z,3.90
2022-12-22T12:03:04.296Z,1.00
2022-12-22T12:04:04.336Z,2.10
2022-12-22T12:05:04.276Z,1.60
2022-12-22T12:06:04.281Z,2.10
2022-12-22T12:07:04.249Z,1.60
2022-12-22T12:08:04.280Z,1.40
2022-12-22T12:09:04.199Z,2.30
2022-12-22T12:10:04.227Z,1.30
2022-12-22T12:11:04.221Z,1.80
2022-12-22T12:12:04.183Z,2.80
2022-12-22T12:13:04.158Z,1.30
2022-12-22T12:14:04.177Z,1.60
2022-12-22T12:15:04.217Z,2.50
2022-12-22T12:16:04.226Z,1.80
2022-12-22T12:17:04.179Z,1.20
2022-12-22T12:18:04.447Z,1.80
2022-12-22T12:19:04.081Z,1.90
2022-12-22T12:20:04.090Z,1.30
2022-12-22T12:21:04.045Z,2.40
2022-12-22T12:22:04.058Z,1.60
2022-12-22T12:23:04.017Z,1.60
2022-12-22T12:24:04.008Z,1.10
2022-12-22T12:25:03.996Z,1.90
2022-12-22T12:26:03.971Z,1.60
2022-12-22T12:27:03.988Z,1.70
2022-12-22T12:28:03.964Z,1.20
2022-12-22T12:29:03.969Z,2.40
2022-12-22T12:30:36.881Z,1.50
2022-12-22T12:31:03.932Z,2.20
2022-12-22T12:32:04.014Z,1.30
2022-12-22T12:33:03.949Z,1.60
2022-12-22T12:34:03.872Z,2.20
2022-12-22T12:35:03.864Z,1.70
2022-12-22T12:36:03.934Z,1.60
2022-12-22T12:37:03.856Z,2.30
2022-12-22T12:38:03.867Z,2.30
2022-12-22T12:39:08.790Z,2.60
2022-12-22T12:40:03.798Z,2.50
2022-12-22T12:41:03.792Z,1.90
2022-12-22T12:42:03.767Z,2.20
2022-12-22T12:43:03.768Z,1.60
2022-12-22T12:44:03.772Z,2.00
2022-12-22T12:45:03.755Z,1.70
2022-12-22T12:46:03.736Z,2.20
2022-12-22T12:47:03.756Z,2.80
2022-12-22T12:48:03.904Z,2.90
2022-12-22T12:49:03.697Z,2.00
2022-12-22T12:50:03.711Z,1.20
2022-12-22T12:51:03.666Z,1.70
2022-12-22T12:52:03.690Z,1.80
2022-12-22T12:53:03.639Z,2.20
2022-12-22T12:54:03.665Z,1.50
2022-12-22T12:55:03.605Z,1.60
2022-12-22T12:56:03.697Z,2.10
2022-12-22T12:57:03.593Z,1.70
2022-12-22T12:58:03.588Z,1.00
2022-12-22T12:59:03.583Z,2.20
2022-12-22T13:00:03.542Z,1.20
2022-12-22T13:01:03.640Z,1.40
2022-12-22T13:02:03.708Z,1.50
2022-12-22T13:03:03.705Z,4.00
2022-12-22T13:04:05.392Z,2.70
2022-12-22T13:05:03.488Z,2.60
2022-12-22T13:06:03.511Z,1.20
2022-12-22T13:07:03.451Z,2.60
2022-12-22T13:08:03.427Z,2.40
2022-12-22T13:09:39.692Z,1.80
2022-12-22T13:10:03.417Z,0.80
2022-12-22T13:11:03.391Z,2.10
2022-12-22T13:12:12.669Z,2.10
2022-12-22T13:13:03.371Z,2.90
2022-12-22T13:14:03.391Z,1.30
2022-12-22T13:15:03.401Z,1.80
2022-12-22T13:16:03.423Z,1.30